sensor_id;sensor_type;location;lat;lon;timestamp;temperature;humidity
40732;DHT22;26420;52.256;9.096;2023-12-20T00:02:50;7.20;99.90
40732;DHT22;26420;52.256;9.096;2023-12-20T00:07:52;7.20;99.90
40732;DHT22;26420;52.256;9.096;2023-12-20T00:12:54;7.10;99.90
40732;DHT22;26420;52.256;9.096;2023-12-20T00:17:56;7.10;99.90
40732;DHT22;26420;52.256;9.096;2023-12-20T00:22:58;7.00;99.90
40732;DHT22;26420;52.256;9.096;2023-12-20T00:28:00;6.90;99.90
40732;DHT22;26420;52.256;9.096;2023-12-20T00:33:01;6.90;99.90
40732;DHT22;26420;52.256;9.096;2023-12-20T00:38:04;6.90;99.90
40732;DHT22;26420;52.256;9.096;2023-12-20T00:43:07;6.80;99.90
40732;DHT22;26420;52.256;9.096;2023-12-20T00:48:09;6.70;99.90
40732;DHT22;26420;52.256;9.096;2023-12-20T00:53:10;6.70;99.90
40732;DHT22;26420;52.256;9.096;2023-12-20T00:58:12;6.50;99.90
40732;DHT22;26420;52.256;9.096;2023-12-20T01:03:16;6.50;99.90
40732;DHT22;26420;52.256;9.096;2023-12-20T01:08:18;6.40;99.90
40732;DHT22;26420;52.256;9.096;2023-12-20T01:13:20;6.50;99.90
40732;DHT22;26420;52.256;9.096;2023-12-20T01:18:22;6.50;99.90
40732;DHT22;26420;52.256;9.096;2023-12-20T01:23:24;6.50;99.90
40732;DHT22;26420;52.256;9.096;2023-12-20T01:28:26;6.40;99.90
40732;DHT22;26420;52.256;9.096;2023-12-20T01:33:28;6.40;99.90
40732;DHT22;26420;52.256;9.096;2023-12-20T01:38:30;6.40;99.90
40732;DHT22;26420;52.256;9.096;2023-12-20T01:43:31;6.40;99.90
40732;DHT22;26420;52.256;9.096;2023-12-20T01:48:41;6.50;99.90
40732;DHT22;26420;52.256;9.096;2023-12-20T01:53:43;6.40;99.90
40732;DHT22;26420;52.256;9.096;2023-12-20T01:58:46;6.40;99.90
40732;DHT22;26420;52.256;9.096;2023-12-20T02:03:49;6.30;99.90
40732;DHT22;26420;52.256;9.096;2023-12-20T02:08:51;6.20;99.90
40732;DHT22;26420;52.256;9.096;2023-12-20T02:13:53;6.10;99.90
40732;DHT22;26420;52.256;9.096;2023-12-20T02:18:55;6.10;99.90
40732;DHT22;26420;52.256;9.096;2023-12-20T02:23:57;6.10;99.90
40732;DHT22;26420;52.256;9.096;2023-12-20T02:28:59;6.10;99.90
40732;DHT22;26420;52.256;9.096;2023-12-20T02:34:01;6.10;99.90
40732;DHT22;26420;52.256;9.096;2023-12-20T02:39:03;6.00;99.90
40732;DHT22;26420;52.256;9.096;2023-12-20T02:44:05;6.10;99.90
40732;DHT22;26420;52.256;9.096;2023-12-20T02:49:07;5.90;99.90
40732;DHT22;26420;52.256;9.096;2023-12-20T02:54:09;5.80;99.90
40732;DHT22;26420;52.256;9.096;2023-12-20T02:59:11;5.80;99.90
40732;DHT22;26420;52.256;9.096;2023-12-20T03:04:12;5.80;99.90
40732;DHT22;26420;52.256;9.096;2023-12-20T03:09:14;5.80;99.90
40732;DHT22;26420;52.256;9.096;2023-12-20T03:14:16;5.80;99.90
40732;DHT22;26420;52.256;9.096;2023-12-20T03:19:18;5.80;99.90
40732;DHT22;26420;52.256;9.096;2023-12-20T03:24:21;5.80;99.90
40732;DHT22;26420;52.256;9.096;2023-12-20T03:29:23;5.80;99.90
40732;DHT22;26420;52.256;9.096;2023-12-20T03:34:24;5.80;99.90
40732;DHT22;26420;52.256;9.096;2023-12-20T03:39:26;5.80;99.90
40732;DHT22;26420;52.256;9.096;2023-12-20T03:44:28;5.90;99.90
40732;DHT22;26420;52.256;9.096;2023-12-20T03:49:30;5.80;99.90
40732;DHT22;26420;52.256;9.096;2023-12-20T03:54:31;5.70;99.90
40732;DHT22;26420;52.256;9.096;2023-12-20T03:59:37;5.70;99.90
40732;DHT22;26420;52.256;9.096;2023-12-20T04:04:39;5.80;99.90
40732;DHT22;26420;52.256;9.096;2023-12-20T04:09:41;5.70;99.90
40732;DHT22;26420;52.256;9.096;2023-12-20T04:14:43;5.70;99.90
40732;DHT22;26420;52.256;9.096;2023-12-20T04:19:44;5.70;99.90
40732;DHT22;26420;52.256;9.096;2023-12-20T04:24:46;5.80;99.90
40732;DHT22;26420;52.256;9.096;2023-12-20T04:29:48;5.90;99.90
40732;DHT22;26420;52.256;9.096;2023-12-20T04:34:50;5.90;99.90
40732;DHT22;26420;52.256;9.096;2023-12-20T04:39:52;6.00;99.90
40732;DHT22;26420;52.256;9.096;2023-12-20T04:44:54;6.00;99.90
40732;DHT22;26420;52.256;9.096;2023-12-20T04:49:55;6.00;99.90
40732;DHT22;26420;52.256;9.096;2023-12-20T04:54:58;6.00;99.90
40732;DHT22;26420;52.256;9.096;2023-12-20T05:00:01;6.10;99.90
40732;DHT22;26420;52.256;9.096;2023-12-20T05:05:03;6.00;99.90
40732;DHT22;26420;52.256;9.096;2023-12-20T05:10:05;6.00;99.90
40732;DHT22;26420;52.256;9.096;2023-12-20T05:15:09;6.00;99.90
40732;DHT22;26420;52.256;9.096;2023-12-20T05:20:11;6.00;99.90
40732;DHT22;26420;52.256;9.096;2023-12-20T05:25:13;6.00;99.90
40732;DHT22;26420;52.256;9.096;2023-12-20T05:30:15;5.90;99.90
40732;DHT22;26420;52.256;9.096;2023-12-20T05:35:17;5.80;99.90
40732;DHT22;26420;52.256;9.096;2023-12-20T05:40:19;5.90;99.90
40732;DHT22;26420;52.256;9.096;2023-12-20T05:45:21;5.90;99.90
40732;DHT22;26420;52.256;9.096;2023-12-20T05:50:22;5.90;99.90
40732;DHT22;26420;52.256;9.096;2023-12-20T05:55:24;5.90;99.90
40732;DHT22;26420;52.256;9.096;2023-12-20T06:00:26;5.90;99.90
40732;DHT22;26420;52.256;9.096;2023-12-20T06:05:29;5.90;99.90
40732;DHT22;26420;52.256;9.096;2023-12-20T06:10:30;5.80;99.90
40732;DHT22;26420;52.256;9.096;2023-12-20T06:15:33;5.80;99.90
40732;DHT22;26420;52.256;9.096;2023-12-20T06:20:35;5.90;99.90
40732;DHT22;26420;52.256;9.096;2023-12-20T06:25:37;5.80;99.90
40732;DHT22;26420;52.256;9.096;2023-12-20T06:30:39;5.90;99.90
40732;DHT22;26420;52.256;9.096;2023-12-20T06:35:41;5.90;99.90
40732;DHT22;26420;52.256;9.096;2023-12-20T06:40:42;5.90;99.90
40732;DHT22;26420;52.256;9.096;2023-12-20T06:45:44;5.90;99.90
40732;DHT22;26420;52.256;9.096;2023-12-20T06:50:46;5.90;99.90
40732;DHT22;26420;52.256;9.096;2023-12-20T06:55:48;5.90;99.90
40732;DHT22;26420;52.256;9.096;2023-12-20T07:00:50;5.90;99.90
40732;DHT22;26420;52.256;9.096;2023-12-20T07:05:53;5.90;99.90
40732;DHT22;26420;52.256;9.096;2023-12-20T07:10:55;5.80;99.90
40732;DHT22;26420;52.256;9.096;2023-12-20T07:15:56;5.80;99.90
40732;DHT22;26420;52.256;9.096;2023-12-20T07:20:58;5.90;99.90
40732;DHT22;26420;52.256;9.096;2023-12-20T07:26:00;5.90;99.90
40732;DHT22;26420;52.256;9.096;2023-12-20T07:31:02;5.90;99.90
40732;DHT22;26420;52.256;9.096;2023-12-20T07:36:04;6.00;99.90
40732;DHT22;26420;52.256;9.096;2023-12-20T07:41:09;6.10;99.90
40732;DHT22;26420;52.256;9.096;2023-12-20T07:46:11;6.10;99.90
40732;DHT22;26420;52.256;9.096;2023-12-20T07:51:13;6.00;99.90
40732;DHT22;26420;52.256;9.096;2023-12-20T07:56:19;6.00;99.90
40732;DHT22;26420;52.256;9.096;2023-12-20T08:01:22;6.10;99.90
40732;DHT22;26420;52.256;9.096;2023-12-20T08:06:24;6.10;99.90
40732;DHT22;26420;52.256;9.096;2023-12-20T08:11:26;6.10;99.90
40732;DHT22;26420;52.256;9.096;2023-12-20T08:16:28;6.10;99.90
40732;DHT22;26420;52.256;9.096;2023-12-20T08:21:29;6.20;99.90
40732;DHT22;26420;52.256;9.096;2023-12-20T08:26:33;6.10;99.90
40732;DHT22;26420;52.256;9.096;2023-12-20T08:31:35;6.10;99.90
40732;DHT22;26420;52.256;9.096;2023-12-20T08:36:36;6.20;99.90
40732;DHT22;26420;52.256;9.096;2023-12-20T08:41:38;6.10;99.90
40732;DHT22;26420;52.256;9.096;2023-12-20T08:46:40;6.10;99.90
40732;DHT22;26420;52.256;9.096;2023-12-20T08:51:42;6.00;99.90
40732;DHT22;26420;52.256;9.096;2023-12-20T08:56:43;6.10;99.90
40732;DHT22;26420;52.256;9.096;2023-12-20T09:01:45;6.10;99.90
40732;DHT22;26420;52.256;9.096;2023-12-20T09:06:48;6.20;99.90
40732;DHT22;26420;52.256;9.096;2023-12-20T09:11:50;6.30;99.90
40732;DHT22;26420;52.256;9.096;2023-12-20T09:16:52;6.30;99.90
40732;DHT22;26420;52.256;9.096;2023-12-20T09:21:57;6.40;99.90
40732;DHT22;26420;52.256;9.096;2023-12-20T09:26:59;6.50;99.90
40732;DHT22;26420;52.256;9.096;2023-12-20T09:32:00;6.50;99.90
40732;DHT22;26420;52.256;9.096;2023-12-20T09:37:03;6.60;99.90
40732;DHT22;26420;52.256;9.096;2023-12-20T09:42:06;6.70;99.90
40732;DHT22;26420;52.256;9.096;2023-12-20T09:47:08;6.70;99.90
40732;DHT22;26420;52.256;9.096;2023-12-20T09:52:11;6.70;99.90
40732;DHT22;26420;52.256;9.096;2023-12-20T09:57:14;6.70;99.90
40732;DHT22;26420;52.256;9.096;2023-12-20T10:02:16;6.70;99.90
40732;DHT22;26420;52.256;9.096;2023-12-20T10:07:22;6.70;99.90
40732;DHT22;26420;52.256;9.096;2023-12-20T10:12:24;6.70;99.90
40732;DHT22;26420;52.256;9.096;2023-12-20T10:17:27;6.70;99.90
40732;DHT22;26420;52.256;9.096;2023-12-20T10:22:32;6.80;99.90
40732;DHT22;26420;52.256;9.096;2023-12-20T10:27:33;6.80;99.90
40732;DHT22;26420;52.256;9.096;2023-12-20T10:32:35;6.70;99.90
40732;DHT22;26420;52.256;9.096;2023-12-20T10:37:37;6.60;99.90
40732;DHT22;26420;52.256;9.096;2023-12-20T10:42:39;6.60;99.90
40732;DHT22;26420;52.256;9.096;2023-12-20T10:47:44;6.50;99.90
40732;DHT22;26420;52.256;9.096;2023-12-20T10:52:50;6.50;99.90
40732;DHT22;26420;52.256;9.096;2023-12-20T10:58:07;6.50;99.90
40732;DHT22;26420;52.256;9.096;2023-12-20T11:03:11;6.50;99.90
40732;DHT22;26420;52.256;9.096;2023-12-20T11:08:22;6.60;99.90
40732;DHT22;26420;52.256;9.096;2023-12-20T11:13:54;6.60;99.90
40732;DHT22;26420;52.256;9.096;2023-12-20T11:19:05;6.90;99.90
40732;DHT22;26420;52.256;9.096;2023-12-20T11:24:07;6.80;99.90
40732;DHT22;26420;52.256;9.096;2023-12-20T11:34:32;6.80;99.90
40732;DHT22;26420;52.256;9.096;2023-12-20T11:39:35;6.90;99.90
40732;DHT22;26420;52.256;9.096;2023-12-20T11:44:38;6.90;99.90
40732;DHT22;26420;52.256;9.096;2023-12-20T11:49:40;6.90;99.90
40732;DHT22;26420;52.256;9.096;2023-12-20T11:54:42;6.90;99.90
40732;DHT22;26420;52.256;9.096;2023-12-20T11:59:43;6.90;99.90
40732;DHT22;26420;52.256;9.096;2023-12-20T12:04:48;6.80;99.90
40732;DHT22;26420;52.256;9.096;2023-12-20T12:09:50;6.80;99.90
40732;DHT22;26420;52.256;9.096;2023-12-20T12:14:54;6.00;99.90
40732;DHT22;26420;52.256;9.096;2023-12-20T12:20:06;5.70;99.90
40732;DHT22;26420;52.256;9.096;2023-12-20T12:25:11;5.60;99.90
40732;DHT22;26420;52.256;9.096;2023-12-20T12:30:16;5.60;99.90
40732;DHT22;26420;52.256;9.096;2023-12-20T12:35:20;5.40;99.90
40732;DHT22;26420;52.256;9.096;2023-12-20T12:40:23;5.20;99.90
40732;DHT22;26420;52.256;9.096;2023-12-20T12:45:25;5.10;99.90
40732;DHT22;26420;52.256;9.096;2023-12-20T12:50:28;5.20;99.90
40732;DHT22;26420;52.256;9.096;2023-12-20T12:55:32;5.30;99.90
40732;DHT22;26420;52.256;9.096;2023-12-20T13:00:34;5.50;99.90
40732;DHT22;26420;52.256;9.096;2023-12-20T13:05:36;5.70;99.90
40732;DHT22;26420;52.256;9.096;2023-12-20T13:10:41;5.90;99.90
40732;DHT22;26420;52.256;9.096;2023-12-20T13:15:43;6.10;99.90
40732;DHT22;26420;52.256;9.096;2023-12-20T13:20:52;6.20;99.90
40732;DHT22;26420;52.256;9.096;2023-12-20T13:25:54;6.30;99.90
40732;DHT22;26420;52.256;9.096;2023-12-20T13:30:56;6.30;99.90
40732;DHT22;26420;52.256;9.096;2023-12-20T13:35:57;6.30;99.90
40732;DHT22;26420;52.256;9.096;2023-12-20T13:41:00;6.30;99.90
40732;DHT22;26420;52.256;9.096;2023-12-20T13:46:02;6.30;99.90
40732;DHT22;26420;52.256;9.096;2023-12-20T13:51:03;6.30;99.90
40732;DHT22;26420;52.256;9.096;2023-12-20T13:56:06;6.40;99.90
40732;DHT22;26420;52.256;9.096;2023-12-20T14:01:09;6.30;99.90
40732;DHT22;26420;52.256;9.096;2023-12-20T14:06:12;6.30;99.90
40732;DHT22;26420;52.256;9.096;2023-12-20T14:11:15;6.30;99.90
40732;DHT22;26420;52.256;9.096;2023-12-20T14:16:17;6.20;99.90
40732;DHT22;26420;52.256;9.096;2023-12-20T14:21:19;6.20;99.90
40732;DHT22;26420;52.256;9.096;2023-12-20T14:26:21;6.20;99.90
40732;DHT22;26420;52.256;9.096;2023-12-20T14:31:23;6.20;99.90
40732;DHT22;26420;52.256;9.096;2023-12-20T14:36:26;6.20;99.90
40732;DHT22;26420;52.256;9.096;2023-12-20T14:41:28;6.30;99.90
40732;DHT22;26420;52.256;9.096;2023-12-20T14:46:32;6.30;99.90
40732;DHT22;26420;52.256;9.096;2023-12-20T14:51:34;6.20;99.90
40732;DHT22;26420;52.256;9.096;2023-12-20T14:56:37;6.20;99.90
40732;DHT22;26420;52.256;9.096;2023-12-20T15:01:39;6.20;99.90
40732;DHT22;26420;52.256;9.096;2023-12-20T15:06:42;6.10;99.90
40732;DHT22;26420;52.256;9.096;2023-12-20T15:11:44;6.10;99.90
40732;DHT22;26420;52.256;9.096;2023-12-20T15:16:47;6.10;99.90
40732;DHT22;26420;52.256;9.096;2023-12-20T15:21:49;6.10;99.90
40732;DHT22;26420;52.256;9.096;2023-12-20T15:26:52;6.10;99.90
40732;DHT22;26420;52.256;9.096;2023-12-20T15:31:53;6.10;99.90
40732;DHT22;26420;52.256;9.096;2023-12-20T15:36:55;6.00;99.90
40732;DHT22;26420;52.256;9.096;2023-12-20T15:41:57;5.90;99.90
40732;DHT22;26420;52.256;9.096;2023-12-20T15:46:59;5.90;99.90
40732;DHT22;26420;52.256;9.096;2023-12-20T15:52:01;5.90;99.90
40732;DHT22;26420;52.256;9.096;2023-12-20T15:57:07;5.90;99.90
40732;DHT22;26420;52.256;9.096;2023-12-20T16:02:09;5.80;99.90
40732;DHT22;26420;52.256;9.096;2023-12-20T16:07:11;5.80;99.90
40732;DHT22;26420;52.256;9.096;2023-12-20T16:12:13;5.80;99.90
40732;DHT22;26420;52.256;9.096;2023-12-20T16:17:15;5.70;99.90
40732;DHT22;26420;52.256;9.096;2023-12-20T16:22:18;5.60;99.90
40732;DHT22;26420;52.256;9.096;2023-12-20T16:27:19;5.60;99.90
40732;DHT22;26420;52.256;9.096;2023-12-20T16:32:21;5.50;99.90
40732;DHT22;26420;52.256;9.096;2023-12-20T16:37:23;5.60;99.90
40732;DHT22;26420;52.256;9.096;2023-12-20T16:42:25;5.70;99.90
40732;DHT22;26420;52.256;9.096;2023-12-20T16:47:27;5.60;99.90
40732;DHT22;26420;52.256;9.096;2023-12-20T16:52:29;5.70;99.90
40732;DHT22;26420;52.256;9.096;2023-12-20T16:57:30;5.60;99.90
40732;DHT22;26420;52.256;9.096;2023-12-20T17:02:33;5.60;99.90
40732;DHT22;26420;52.256;9.096;2023-12-20T17:07:35;5.60;99.90
40732;DHT22;26420;52.256;9.096;2023-12-20T17:12:37;5.60;99.90
40732;DHT22;26420;52.256;9.096;2023-12-20T17:17:38;5.50;99.90
40732;DHT22;26420;52.256;9.096;2023-12-20T17:22:40;5.50;99.90
40732;DHT22;26420;52.256;9.096;2023-12-20T17:27:42;5.50;99.90
40732;DHT22;26420;52.256;9.096;2023-12-20T17:32:47;5.40;99.90
40732;DHT22;26420;52.256;9.096;2023-12-20T17:37:51;5.40;99.90
40732;DHT22;26420;52.256;9.096;2023-12-20T17:42:53;5.50;99.90
40732;DHT22;26420;52.256;9.096;2023-12-20T17:47:57;5.40;99.90
40732;DHT22;26420;52.256;9.096;2023-12-20T17:52:59;5.40;99.90
40732;DHT22;26420;52.256;9.096;2023-12-20T17:58:01;5.40;99.90
40732;DHT22;26420;52.256;9.096;2023-12-20T18:03:03;5.50;99.90
40732;DHT22;26420;52.256;9.096;2023-12-20T18:08:05;5.50;99.90
40732;DHT22;26420;52.256;9.096;2023-12-20T18:13:07;5.60;99.90
40732;DHT22;26420;52.256;9.096;2023-12-20T18:18:09;5.70;99.90
40732;DHT22;26420;52.256;9.096;2023-12-20T18:23:13;5.80;99.90
40732;DHT22;26420;52.256;9.096;2023-12-20T18:28:14;5.80;99.90
40732;DHT22;26420;52.256;9.096;2023-12-20T18:33:17;5.80;99.90
40732;DHT22;26420;52.256;9.096;2023-12-20T18:38:19;5.90;99.90
40732;DHT22;26420;52.256;9.096;2023-12-20T18:43:21;6.00;99.90
40732;DHT22;26420;52.256;9.096;2023-12-20T18:48:23;6.10;99.90
40732;DHT22;26420;52.256;9.096;2023-12-20T18:53:24;6.20;99.90
40732;DHT22;26420;52.256;9.096;2023-12-20T18:58:26;6.30;99.90
40732;DHT22;26420;52.256;9.096;2023-12-20T19:03:32;6.40;99.90
40732;DHT22;26420;52.256;9.096;2023-12-20T19:08:34;6.50;99.90
40732;DHT22;26420;52.256;9.096;2023-12-20T19:13:38;6.50;99.90
40732;DHT22;26420;52.256;9.096;2023-12-20T19:18:39;6.50;99.90
40732;DHT22;26420;52.256;9.096;2023-12-20T19:23:41;6.60;99.90
40732;DHT22;26420;52.256;9.096;2023-12-20T19:28:46;6.70;99.90
40732;DHT22;26420;52.256;9.096;2023-12-20T19:33:48;6.70;99.90
40732;DHT22;26420;52.256;9.096;2023-12-20T19:38:53;6.70;99.90
40732;DHT22;26420;52.256;9.096;2023-12-20T19:43:55;6.70;99.90
40732;DHT22;26420;52.256;9.096;2023-12-20T19:48:59;6.80;99.90
40732;DHT22;26420;52.256;9.096;2023-12-20T19:54:01;6.90;99.90
40732;DHT22;26420;52.256;9.096;2023-12-20T19:59:03;6.80;99.90
40732;DHT22;26420;52.256;9.096;2023-12-20T20:04:05;6.80;99.90
40732;DHT22;26420;52.256;9.096;2023-12-20T20:09:07;6.80;99.90
40732;DHT22;26420;52.256;9.096;2023-12-20T20:14:09;6.80;99.90
40732;DHT22;26420;52.256;9.096;2023-12-20T20:19:11;6.80;99.90
40732;DHT22;26420;52.256;9.096;2023-12-20T20:24:13;6.80;99.90
40732;DHT22;26420;52.256;9.096;2023-12-20T20:29:15;6.90;99.90
40732;DHT22;26420;52.256;9.096;2023-12-20T20:34:17;6.90;99.90
40732;DHT22;26420;52.256;9.096;2023-12-20T20:39:21;6.90;99.90
40732;DHT22;26420;52.256;9.096;2023-12-20T20:44:23;7.00;99.90
40732;DHT22;26420;52.256;9.096;2023-12-20T20:49:25;7.00;99.90
40732;DHT22;26420;52.256;9.096;2023-12-20T20:54:27;7.00;99.90
40732;DHT22;26420;52.256;9.096;2023-12-20T20:59:29;7.00;99.90
40732;DHT22;26420;52.256;9.096;2023-12-20T21:04:30;7.00;99.90
40732;DHT22;26420;52.256;9.096;2023-12-20T21:09:32;7.10;99.90
40732;DHT22;26420;52.256;9.096;2023-12-20T21:14:34;7.10;99.90
40732;DHT22;26420;52.256;9.096;2023-12-20T21:19:36;7.00;99.90
40732;DHT22;26420;52.256;9.096;2023-12-20T21:24:38;7.10;99.90
40732;DHT22;26420;52.256;9.096;2023-12-20T21:29:40;7.10;99.90
40732;DHT22;26420;52.256;9.096;2023-12-20T21:34:42;7.20;99.90
40732;DHT22;26420;52.256;9.096;2023-12-20T21:39:44;7.20;99.90
40732;DHT22;26420;52.256;9.096;2023-12-20T21:44:46;7.20;99.90
40732;DHT22;26420;52.256;9.096;2023-12-20T21:49:48;7.30;99.90
40732;DHT22;26420;52.256;9.096;2023-12-20T21:54:50;7.30;99.90
40732;DHT22;26420;52.256;9.096;2023-12-20T21:59:52;7.40;99.90
40732;DHT22;26420;52.256;9.096;2023-12-20T22:04:54;7.30;99.90
40732;DHT22;26420;52.256;9.096;2023-12-20T22:09:56;7.40;99.90
40732;DHT22;26420;52.256;9.096;2023-12-20T22:14:58;7.40;99.90
40732;DHT22;26420;52.256;9.096;2023-12-20T22:20:00;7.50;99.90
40732;DHT22;26420;52.256;9.096;2023-12-20T22:25:02;7.60;99.90
40732;DHT22;26420;52.256;9.096;2023-12-20T22:30:05;7.50;99.90
40732;DHT22;26420;52.256;9.096;2023-12-20T22:35:08;7.50;99.90
40732;DHT22;26420;52.256;9.096;2023-12-20T22:40:11;7.50;99.90
40732;DHT22;26420;52.256;9.096;2023-12-20T22:45:13;7.60;99.90
40732;DHT22;26420;52.256;9.096;2023-12-20T22:50:15;7.60;99.90
40732;DHT22;26420;52.256;9.096;2023-12-20T22:55:17;7.50;99.90
40732;DHT22;26420;52.256;9.096;2023-12-20T23:00:20;7.60;99.90
40732;DHT22;26420;52.256;9.096;2023-12-20T23:05:28;7.60;99.90
40732;DHT22;26420;52.256;9.096;2023-12-20T23:10:30;7.60;99.90
40732;DHT22;26420;52.256;9.096;2023-12-20T23:15:33;7.60;99.90
40732;DHT22;26420;52.256;9.096;2023-12-20T23:20:35;7.70;99.90
40732;DHT22;26420;52.256;9.096;2023-12-20T23:25:37;7.70;99.90
40732;DHT22;26420;52.256;9.096;2023-12-20T23:30:39;7.70;99.90
40732;DHT22;26420;52.256;9.096;2023-12-20T23:35:41;7.70;99.90
40732;DHT22;26420;52.256;9.096;2023-12-20T23:40:43;7.80;99.90
40732;DHT22;26420;52.256;9.096;2023-12-20T23:45:45;7.70;99.90
40732;DHT22;26420;52.256;9.096;2023-12-20T23:50:47;7.80;99.90
40732;DHT22;26420;52.256;9.096;2023-12-20T23:55:50;7.80;99.90
